createdAt,value
2022-08-18T00:00:07.023Z,4.37
2022-08-18T00:02:43.534Z,3.80
2022-08-18T00:05:24.056Z,3.53
2022-08-18T00:07:51.597Z,4.07
2022-08-18T00:10:19.115Z,3.77
2022-08-18T00:12:46.499Z,3.97
2022-08-18T00:15:32.497Z,4.80
2022-08-18T00:18:12.034Z,4.47
2022-08-18T00:20:40.646Z,5.03
2022-08-18T00:23:08.005Z,3.97
2022-08-18T00:25:36.000Z,4.97
2022-08-18T00:28:04.059Z,4.80
2022-08-18T00:30:31.534Z,4.53
2022-08-18T00:33:01.345Z,4.60
2022-08-18T00:35:40.190Z,4.93
2022-08-18T00:38:09.356Z,3.90
2022-08-18T00:40:53.726Z,4.37
2022-08-18T00:43:39.856Z,4.30
2022-08-18T00:46:17.658Z,5.00
2022-08-18T00:48:48.626Z,5.53
2022-08-18T00:51:49.519Z,4.87
2022-08-18T00:54:16.789Z,4.63
2022-08-18T00:56:55.532Z,5.00
2022-08-18T00:59:46.630Z,4.70
2022-08-18T01:02:30.736Z,4.30
2022-08-18T01:05:01.737Z,6.77
2022-08-18T01:07:37.480Z,4.63
2022-08-18T01:10:05.050Z,4.50
2022-08-18T01:12:45.118Z,5.93
2022-08-18T01:15:29.116Z,5.03
2022-08-18T01:18:18.557Z,5.47
2022-08-18T01:21:35.106Z,5.80
2022-08-18T01:24:07.411Z,5.70
2022-08-18T01:26:45.655Z,5.30
2022-08-18T01:29:18.956Z,5.47
2022-08-18T01:32:00.029Z,5.87
2022-08-18T01:34:28.588Z,5.97
2022-08-18T01:36:56.773Z,5.43
2022-08-18T01:41:23.718Z,5.00
2022-08-18T01:42:35.133Z,4.57
2022-08-18T01:45:40.133Z,4.60
2022-08-18T01:48:40.155Z,4.70
2022-08-18T01:51:09.796Z,3.60
2022-08-18T01:53:38.087Z,4.50
2022-08-18T01:56:20.444Z,4.67
2022-08-18T01:59:19.604Z,4.13
2022-08-18T02:02:00.533Z,4.27
2022-08-18T02:04:40.734Z,4.50
2022-08-18T02:07:32.648Z,4.83
2022-08-18T02:10:16.629Z,4.50
2022-08-18T02:15:47.604Z,5.30
2022-08-18T02:18:37.205Z,4.37
2022-08-18T02:21:11.443Z,4.53
2022-08-18T02:23:40.052Z,6.57
2022-08-18T02:26:20.183Z,5.17
2022-08-18T02:28:47.799Z,4.83
2022-08-18T02:31:31.364Z,5.30
2022-08-18T02:34:00.848Z,5.37
2022-08-18T02:36:29.602Z,5.73
2022-08-18T02:39:03.071Z,5.40
2022-08-18T02:41:31.533Z,6.60
2022-08-18T02:44:00.476Z,6.37
2022-08-18T02:46:30.043Z,5.57
2022-08-18T02:49:01.838Z,5.10
2022-08-18T02:51:29.601Z,6.10
2022-08-18T02:53:59.852Z,6.37
2022-08-18T02:56:32.716Z,4.90
2022-08-18T02:59:17.074Z,5.17
2022-08-18T03:01:51.116Z,4.93
2022-08-18T03:04:30.047Z,4.40
2022-08-18T03:07:02.287Z,4.90
2022-08-18T03:09:36.701Z,4.97
2022-08-18T03:12:08.455Z,4.27
2022-08-18T03:14:38.186Z,5.30
2022-08-18T03:17:16.957Z,5.60
2022-08-18T03:19:47.891Z,5.47
2022-08-18T03:22:28.327Z,5.20
2022-08-18T03:25:02.300Z,6.03
2022-08-18T03:27:31.062Z,5.30
2022-08-18T03:30:11.636Z,5.97
2022-08-18T03:32:39.108Z,5.80
2022-08-18T03:35:15.071Z,4.80
2022-08-18T03:37:45.388Z,5.73
2022-08-18T03:40:12.912Z,6.10
2022-08-18T03:42:40.452Z,6.57
2022-08-18T03:45:17.794Z,7.17
2022-08-18T03:47:49.947Z,5.73
2022-08-18T03:50:20.177Z,5.67
2022-08-18T03:52:48.664Z,7.40
2022-08-18T03:55:16.724Z,7.13
2022-08-18T03:57:50.966Z,7.10
2022-08-18T04:00:19.841Z,6.50
2022-08-18T04:02:47.260Z,5.97
2022-08-18T04:05:14.840Z,6.67
2022-08-18T04:07:44.752Z,6.80
2022-08-18T04:10:19.398Z,7.43
2022-08-18T04:12:53.204Z,6.73
2022-08-18T04:15:28.684Z,7.37
2022-08-18T04:18:06.632Z,5.57
2022-08-18T04:20:54.700Z,6.73
2022-08-18T04:23:28.056Z,6.63
2022-08-18T04:25:57.853Z,6.67
2022-08-18T04:28:44.850Z,6.10
2022-08-18T04:31:14.655Z,7.33
2022-08-18T04:33:42.369Z,6.73
2022-08-18T04:36:19.191Z,8.17
2022-08-18T04:38:50.542Z,7.83
2022-08-18T04:41:23.401Z,7.37
2022-08-18T04:43:52.693Z,9.70
2022-08-18T04:46:20.444Z,8.13
2022-08-18T04:48:52.397Z,8.30
2022-08-18T04:52:34.333Z,7.83
2022-08-18T04:54:07.933Z,8.47
2022-08-18T04:56:38.763Z,8.57
2022-08-18T04:59:09.530Z,10.63
2022-08-18T05:01:48.148Z,8.90
2022-08-18T05:04:20.295Z,9.07
2022-08-18T05:06:47.429Z,9.83
2022-08-18T05:09:23.047Z,10.47
2022-08-18T05:11:51.171Z,10.73
2022-08-18T05:14:24.460Z,8.40
2022-08-18T05:16:52.091Z,8.57
2022-08-18T05:19:27.095Z,11.43
2022-08-18T05:21:59.541Z,10.20
2022-08-18T05:24:36.858Z,9.57
2022-08-18T05:27:09.436Z,11.10
2022-08-18T05:29:41.879Z,11.30
2022-08-18T05:32:37.341Z,10.17
2022-08-18T05:35:14.371Z,10.00
2022-08-18T05:38:15.685Z,9.60
2022-08-18T05:40:46.175Z,9.70
2022-08-18T05:43:17.173Z,17.23
2022-08-18T05:45:44.526Z,12.73
2022-08-18T05:48:11.630Z,13.53
2022-08-18T05:50:44.168Z,28.77
2022-08-18T05:58:59.967Z,15.77
2022-08-18T06:01:42.118Z,11.80
2022-08-18T06:04:31.236Z,15.97
2022-08-18T06:07:06.477Z,12.80
2022-08-18T06:09:50.721Z,11.63
2022-08-18T06:12:41.197Z,10.13
2022-08-18T06:15:28.696Z,10.18
2022-08-18T06:18:21.436Z,10.02
2022-08-18T06:21:30.453Z,9.40
2022-08-18T06:24:03.806Z,11.85
2022-08-18T06:26:59.074Z,14.10
2022-08-18T06:29:58.078Z,11.30
2022-08-18T06:32:44.595Z,12.02
2022-08-18T06:35:25.860Z,27.75
2022-08-18T06:38:18.241Z,24.88
2022-08-18T06:40:47.832Z,19.83
2022-08-18T06:43:22.141Z,13.82
2022-08-18T06:45:52.454Z,14.45
2022-08-18T06:48:32.964Z,22.42
2022-08-18T06:51:08.161Z,20.13
2022-08-18T06:54:04.972Z,21.20
2022-08-18T06:56:53.471Z,21.23
2022-08-18T06:59:34.296Z,23.58
2022-08-18T07:02:19.503Z,24.13
2022-08-18T07:05:29.407Z,21.17
2022-08-18T07:08:23.314Z,21.00
2022-08-18T07:10:52.743Z,22.92
2022-08-18T07:13:35.856Z,23.23
2022-08-18T07:16:57.769Z,24.27
2022-08-18T07:19:36.877Z,22.23
2022-08-18T07:22:22.399Z,22.63
2022-08-18T07:25:06.989Z,22.10
2022-08-18T07:27:49.955Z,22.13
2022-08-18T07:30:29.565Z,22.95
2022-08-18T07:33:21.265Z,24.50
2022-08-18T07:36:00.484Z,28.48
2022-08-18T07:38:53.540Z,26.25
2022-08-18T07:41:32.271Z,26.38
2022-08-18T07:44:13.959Z,26.20
2022-08-18T07:47:02.797Z,28.02
2022-08-18T07:49:35.377Z,24.17
2022-08-18T07:52:46.906Z,28.33
2022-08-18T07:55:35.575Z,29.67
2022-08-18T07:58:39.688Z,28.48
2022-08-18T08:01:20.015Z,28.77
2022-08-18T08:04:25.618Z,33.75
2022-08-18T08:07:24.513Z,35.08
2022-08-18T08:10:31.678Z,30.98
2022-08-18T08:13:54.603Z,31.63
2022-08-18T08:16:48.604Z,33.05
2022-08-18T08:20:00.092Z,33.17
2022-08-18T08:22:50.517Z,36.80
2022-08-18T08:25:49.743Z,32.92
2022-08-18T08:28:26.929Z,33.67
2022-08-18T08:31:33.488Z,32.10
2022-08-18T08:34:15.199Z,32.00
2022-08-18T08:36:47.516Z,32.53
2022-08-18T08:39:24.115Z,32.85
2022-08-18T08:42:31.844Z,28.63
2022-08-18T08:45:12.366Z,30.50
2022-08-18T08:48:08.480Z,30.20
2022-08-18T08:50:51.131Z,28.65
2022-08-18T08:53:44.347Z,28.48
2022-08-18T08:56:16.348Z,28.08
2022-08-18T08:58:58.822Z,27.27
2022-08-18T09:02:00.037Z,29.13
2022-08-18T09:05:08.924Z,32.00
2022-08-18T09:08:25.436Z,31.40
2022-08-18T09:10:52.655Z,30.92
2022-08-18T09:13:44.751Z,28.55
2022-08-18T09:16:27.847Z,27.23
2022-08-18T09:19:24.361Z,28.80
2022-08-18T09:22:08.297Z,26.90
2022-08-18T09:24:54.833Z,27.08
2022-08-18T09:27:28.945Z,26.75
2022-08-18T09:29:59.802Z,27.58
2022-08-18T09:32:34.612Z,26.55
2022-08-18T09:35:32.996Z,28.17
2022-08-18T09:38:36.635Z,25.77
2022-08-18T09:41:34.137Z,28.13
2022-08-18T09:47:02.149Z,26.50
2022-08-18T09:49:29.316Z,30.48
2022-08-18T09:50:38.468Z,28.13
2022-08-18T09:52:00.289Z,27.77
2022-08-18T09:54:49.840Z,26.33
2022-08-18T09:57:24.403Z,27.83
2022-08-18T09:59:58.459Z,29.00
2022-08-18T10:02:41.645Z,27.67
2022-08-18T10:05:16.795Z,28.65
2022-08-18T10:07:53.330Z,29.15
2022-08-18T10:10:58.858Z,39.03
2022-08-18T10:14:09.534Z,40.50
2022-08-18T10:17:21.518Z,38.95
2022-08-18T10:20:07.992Z,42.38
2022-08-18T10:22:54.899Z,42.97
2022-08-18T10:26:01.453Z,43.95
2022-08-18T10:28:56.047Z,43.58
2022-08-18T10:31:27.237Z,45.28
2022-08-18T10:34:19.253Z,46.45
2022-08-18T10:36:59.003Z,46.40
2022-08-18T10:39:45.421Z,46.20
2022-08-18T10:42:39.905Z,44.47
2022-08-18T10:45:22.101Z,52.85
2022-08-18T10:48:40.129Z,48.30
2022-08-18T10:51:59.726Z,46.97
2022-08-18T10:54:31.038Z,46.67
2022-08-18T10:57:42.999Z,58.42
2022-08-18T11:00:17.516Z,53.00
2022-08-18T11:03:55.817Z,60.03
2022-08-18T11:06:29.133Z,47.78
2022-08-18T11:09:01.170Z,60.80
2022-08-18T11:11:58.564Z,61.42
2022-08-18T11:14:38.838Z,50.60
2022-08-18T11:17:24.298Z,56.08
2022-08-18T11:20:17.872Z,52.00
2022-08-18T11:23:02.168Z,60.03
2022-08-18T11:25:41.322Z,64.18
2022-08-18T11:28:22.077Z,51.67
2022-08-18T11:30:59.459Z,57.35
2022-08-18T11:33:28.122Z,57.72
2022-08-18T11:36:01.668Z,51.92
2022-08-18T11:38:31.369Z,59.13
2022-08-18T11:44:22.573Z,59.83
2022-08-18T11:46:55.422Z,55.67
2022-08-18T11:49:33.722Z,55.20
2022-08-18T11:52:29.187Z,54.30
2022-08-18T11:55:24.385Z,48.33
2022-08-18T11:57:59.106Z,59.28
2022-08-18T12:00:48.779Z,55.67
2022-08-18T12:03:41.318Z,47.30
2022-08-18T12:06:19.403Z,61.30
2022-08-18T12:08:58.818Z,50.88
2022-08-18T12:11:43.004Z,60.30
2022-08-18T12:14:32.286Z,60.60
2022-08-18T12:17:03.014Z,55.70
2022-08-18T12:19:48.145Z,56.55
2022-08-18T12:22:25.444Z,48.65
2022-08-18T12:25:02.545Z,51.78
2022-08-18T12:27:41.431Z,55.70
2022-08-18T12:30:16.635Z,46.92
2022-08-18T12:35:26.028Z,51.00
2022-08-18T12:37:59.547Z,42.45
2022-08-18T12:40:30.977Z,52.28
2022-08-18T12:42:58.302Z,54.03
2022-08-18T12:45:30.223Z,43.65
2022-08-18T12:47:57.577Z,49.17
2022-08-18T12:50:36.138Z,38.38
2022-08-18T12:53:09.218Z,35.92
2022-08-18T12:55:43.646Z,43.10
2022-08-18T12:58:12.813Z,44.00
2022-08-18T13:00:41.187Z,35.63
2022-08-18T13:03:19.588Z,38.85
2022-08-18T13:05:47.058Z,43.85
2022-08-18T13:08:30.367Z,44.50
2022-08-18T13:11:15.094Z,47.33
2022-08-18T13:13:52.671Z,36.10
2022-08-18T13:16:30.830Z,44.50
2022-08-18T13:19:10.956Z,39.17
2022-08-18T13:21:47.362Z,41.05
2022-08-18T13:24:25.498Z,40.20
2022-08-18T13:26:52.995Z,46.83
2022-08-18T13:29:25.588Z,39.63
2022-08-18T13:31:58.068Z,41.53
2022-08-18T13:34:29.783Z,40.00
2022-08-18T13:36:57.610Z,49.83
2022-08-18T13:39:31.430Z,35.83
2022-08-18T13:42:26.779Z,39.78
2022-08-18T13:45:22.712Z,44.22
2022-08-18T13:47:58.591Z,41.35
2022-08-18T13:50:33.420Z,42.88
2022-08-18T13:53:02.192Z,36.60
2022-08-18T13:55:33.006Z,39.60
2022-08-18T13:58:00.705Z,36.25
2022-08-18T14:00:31.079Z,38.45
2022-08-18T14:03:03.572Z,38.65
2022-08-18T14:05:50.801Z,37.13
2022-08-18T14:08:25.970Z,41.13
2022-08-18T14:11:05.321Z,36.88
2022-08-18T14:13:43.482Z,39.42
2022-08-18T14:16:30.933Z,39.65
2022-08-18T14:19:17.821Z,41.45
2022-08-18T14:22:11.143Z,33.15
2022-08-18T14:24:59.460Z,36.30
2022-08-18T14:27:56.952Z,40.28
2022-08-18T14:30:33.817Z,41.15
2022-08-18T14:33:01.566Z,39.65
2022-08-18T14:36:03.723Z,40.72
2022-08-18T14:38:22.262Z,41.75
2022-08-18T14:40:58.556Z,47.75
2022-08-18T14:43:27.871Z,41.08
2022-08-18T14:46:29.926Z,42.63
2022-08-18T14:49:03.868Z,38.55
2022-08-18T14:51:50.420Z,45.13
2022-08-18T14:54:28.440Z,42.40
2022-08-18T14:57:05.517Z,46.20
2022-08-18T14:59:40.087Z,43.10
2022-08-18T15:02:13.413Z,41.25
2022-08-18T15:04:52.953Z,42.70
2022-08-18T15:07:25.584Z,39.40
2022-08-18T15:10:19.752Z,38.80
2022-08-18T15:12:53.289Z,43.60
2022-08-18T15:15:22.412Z,41.15
2022-08-18T15:17:52.920Z,42.38
2022-08-18T15:20:30.550Z,37.65
2022-08-18T15:23:22.823Z,40.28
2022-08-18T15:26:03.084Z,46.88
2022-08-18T15:28:34.145Z,40.40
2022-08-18T15:31:17.195Z,41.28
2022-08-18T15:33:51.353Z,37.67
2022-08-18T15:36:28.942Z,40.72
2022-08-18T15:38:57.234Z,34.30
2022-08-18T15:41:43.947Z,33.15
2022-08-18T15:44:16.664Z,35.22
2022-08-18T15:46:53.613Z,36.47
2022-08-18T15:49:34.589Z,33.33
2022-08-18T15:52:12.694Z,38.00
2022-08-18T15:54:53.885Z,38.00
2022-08-18T15:57:38.935Z,38.08
2022-08-18T16:00:08.308Z,35.30
2022-08-18T16:02:44.806Z,33.75
2022-08-18T16:05:17.089Z,34.60
2022-08-18T16:07:46.069Z,37.30
2022-08-18T16:10:17.487Z,34.17
2022-08-18T16:12:46.410Z,36.92
2022-08-18T16:15:27.833Z,32.85
2022-08-18T16:17:55.565Z,33.15
2022-08-18T16:20:24.028Z,32.85
2022-08-18T16:22:53.083Z,32.35
2022-08-18T16:25:21.387Z,28.75
2022-08-18T16:27:48.633Z,33.65
2022-08-18T16:30:20.179Z,33.58
2022-08-18T16:32:48.257Z,32.25
2022-08-18T16:35:17.637Z,30.75
2022-08-18T16:37:46.691Z,31.77
2022-08-18T16:40:15.227Z,37.33
2022-08-18T16:42:42.456Z,40.60
2022-08-18T16:45:29.092Z,32.30
2022-08-18T16:47:56.187Z,32.03
2022-08-18T16:50:25.008Z,36.17
2022-08-18T16:52:52.364Z,33.78
2022-08-18T16:55:22.782Z,40.50
2022-08-18T16:58:12.472Z,38.55
2022-08-18T17:01:20.887Z,29.50
2022-08-18T17:04:20.671Z,32.42
2022-08-18T17:07:23.280Z,33.35
2022-08-18T17:09:50.520Z,32.70
2022-08-18T17:12:17.714Z,33.13
2022-08-18T17:14:44.963Z,29.73
2022-08-18T17:17:12.357Z,31.77
2022-08-18T17:19:39.596Z,29.90
2022-08-18T17:22:07.250Z,40.08
2022-08-18T17:27:38.015Z,34.95
2022-08-18T17:30:17.407Z,32.65
2022-08-18T17:32:56.257Z,35.50
2022-08-18T17:35:39.050Z,50.08
2022-08-18T17:38:14.077Z,49.22
2022-08-18T17:40:51.264Z,40.70
2022-08-18T17:43:21.476Z,37.88
2022-08-18T17:46:07.122Z,43.38
2022-08-18T17:48:53.366Z,41.10
2022-08-18T17:51:34.412Z,40.30
2022-08-18T17:54:09.715Z,48.08
2022-08-18T17:56:55.246Z,46.47
2022-08-18T17:59:45.490Z,38.10
2022-08-18T18:02:31.380Z,43.08
2022-08-18T18:05:01.320Z,45.55
2022-08-18T18:07:31.361Z,38.42
2022-08-18T18:10:08.597Z,30.25
2022-08-18T18:12:37.786Z,37.67
2022-08-18T18:15:09.445Z,36.58
2022-08-18T18:17:39.772Z,36.60
2022-08-18T18:20:32.962Z,34.60
2022-08-18T18:23:20.476Z,36.83
2022-08-18T18:25:47.945Z,41.28
2022-08-18T18:28:33.547Z,31.60
2022-08-18T18:31:21.391Z,41.40
2022-08-18T18:34:23.286Z,34.85
2022-08-18T18:36:56.308Z,41.85
2022-08-18T18:39:35.921Z,33.88
2022-08-18T18:42:19.445Z,35.22
2022-08-18T18:44:53.639Z,32.15
2022-08-18T18:47:48.095Z,33.22
2022-08-18T18:50:58.241Z,32.58
2022-08-18T18:53:46.409Z,29.38
2022-08-18T18:56:27.078Z,25.50
2022-08-18T18:59:35.419Z,29.27
2022-08-18T19:02:33.279Z,32.25
2022-08-18T19:05:25.799Z,28.33
2022-08-18T19:08:40.569Z,28.35
2022-08-18T19:11:43.006Z,28.85
2022-08-18T19:14:20.961Z,37.67
2022-08-18T19:17:03.062Z,35.55
2022-08-18T19:19:36.891Z,35.83
2022-08-18T19:22:39.986Z,35.45
2022-08-18T19:25:25.033Z,32.08
2022-08-18T19:28:17.357Z,36.28
2022-08-18T19:30:49.045Z,34.63
2022-08-18T19:33:50.141Z,29.17
2022-08-18T19:36:55.493Z,28.70
2022-08-18T19:39:46.881Z,29.80
2022-08-18T19:42:43.399Z,25.10
2022-08-18T19:45:34.432Z,33.50
2022-08-18T19:48:04.465Z,25.63
2022-08-18T19:50:52.760Z,33.15
2022-08-18T20:09:30.381Z,25.85
2022-08-18T20:16:44.217Z,23.50
2022-08-18T20:19:36.274Z,24.60
2022-08-18T20:22:07.193Z,25.75
2022-08-18T20:24:49.542Z,24.98
2022-08-18T20:28:18.774Z,29.25
2022-08-18T20:30:58.883Z,27.27
2022-08-18T20:33:26.144Z,21.35
2022-08-18T20:36:29.482Z,27.67
2022-08-18T20:38:59.979Z,22.75
2022-08-18T20:41:33.376Z,21.83
2022-08-18T20:44:36.792Z,20.52
2022-08-18T20:47:22.632Z,22.30
2022-08-18T20:50:52.544Z,21.08
2022-08-18T20:53:57.496Z,21.60
2022-08-18T20:56:43.589Z,29.17
2022-08-18T20:59:18.447Z,26.83
2022-08-18T21:02:05.170Z,24.10
2022-08-18T21:04:34.560Z,28.40
2022-08-18T21:07:13.150Z,26.05
2022-08-18T21:10:13.054Z,24.45
2022-08-18T21:12:52.081Z,23.73
2022-08-18T21:15:26.934Z,23.08
2022-08-18T21:18:03.867Z,25.30
2022-08-18T21:20:33.126Z,20.30
2022-08-18T21:23:13.203Z,21.98
2022-08-18T21:25:52.796Z,20.98
2022-08-18T21:28:21.832Z,21.95
2022-08-18T21:31:41.821Z,18.92
2022-08-18T21:33:56.289Z,23.05
2022-08-18T21:36:25.689Z,20.73
2022-08-18T21:39:03.472Z,19.88
2022-08-18T21:41:39.557Z,17.88
2022-08-18T21:44:13.861Z,21.35
2022-08-18T21:46:43.852Z,19.42
2022-08-18T21:49:11.218Z,17.83
2022-08-18T21:51:47.475Z,23.35
2022-08-18T21:54:18.288Z,24.15
2022-08-18T21:56:45.635Z,24.17
2022-08-18T22:03:12.152Z,22.60
2022-08-18T22:05:55.045Z,20.55
2022-08-18T22:08:31.960Z,25.85
2022-08-18T22:11:43.573Z,19.88
2022-08-18T22:14:54.605Z,25.85
2022-08-18T22:17:31.590Z,24.48
2022-08-18T22:20:33.093Z,26.75
2022-08-18T22:23:54.925Z,28.17
2022-08-18T22:26:27.410Z,28.27
2022-08-18T22:32:37.811Z,27.08
2022-08-18T22:35:07.243Z,26.20
2022-08-18T22:37:42.592Z,25.05
2022-08-18T22:40:14.127Z,21.83
2022-08-18T22:42:41.833Z,26.42
2022-08-18T22:45:13.656Z,25.45
2022-08-18T22:47:45.144Z,27.25
2022-08-18T22:50:13.506Z,27.52
2022-08-18T22:52:44.288Z,27.95
2022-08-18T22:55:14.862Z,28.55
2022-08-18T22:57:46.485Z,26.05
2022-08-18T23:00:18.218Z,27.83
2022-08-18T23:02:47.770Z,24.50
2022-08-18T23:05:28.283Z,23.35
2022-08-18T23:07:55.811Z,19.80
2022-08-18T23:10:23.232Z,27.08
2022-08-18T23:12:52.850Z,22.50
2022-08-18T23:15:48.457Z,23.58
2022-08-18T23:18:19.941Z,25.65
2022-08-18T23:20:54.902Z,22.80
2022-08-18T23:23:24.242Z,25.63
2022-08-18T23:25:52.439Z,19.67
2022-08-18T23:28:20.785Z,20.70
2022-08-18T23:31:00.402Z,21.38
2022-08-18T23:33:27.958Z,19.58
2022-08-18T23:35:55.278Z,17.48
2022-08-18T23:38:23.011Z,20.08
2022-08-18T23:40:59.110Z,18.13
2022-08-18T23:48:49.759Z,18.10
2022-08-18T23:51:32.906Z,19.30
2022-08-18T23:54:04.027Z,17.55
2022-08-18T23:56:32.524Z,21.23
2022-08-18T23:59:01.876Z,18.77
